sensor_id;sensor_type;location;lat;lon;timestamp;temperature;humidity
20070;DHT22;10195;50.868;4.382;2023-04-24T00:01:52;10.30;99.90
20070;DHT22;10195;50.868;4.382;2023-04-24T00:04:18;10.40;99.90
20070;DHT22;10195;50.868;4.382;2023-04-24T00:06:44;10.30;99.90
20070;DHT22;10195;50.868;4.382;2023-04-24T00:09:10;10.30;99.90
20070;DHT22;10195;50.868;4.382;2023-04-24T00:11:38;10.30;99.90
20070;DHT22;10195;50.868;4.382;2023-04-24T00:14:04;10.20;99.90
20070;DHT22;10195;50.868;4.382;2023-04-24T00:16:29;10.30;99.90
20070;DHT22;10195;50.868;4.382;2023-04-24T00:18:55;10.30;99.90
20070;DHT22;10195;50.868;4.382;2023-04-24T00:21:20;10.30;99.90
20070;DHT22;10195;50.868;4.382;2023-04-24T00:23:47;10.30;99.90
20070;DHT22;10195;50.868;4.382;2023-04-24T00:26:13;10.20;99.90
20070;DHT22;10195;50.868;4.382;2023-04-24T00:28:38;10.30;99.90
20070;DHT22;10195;50.868;4.382;2023-04-24T00:31:04;10.20;99.90
20070;DHT22;10195;50.868;4.382;2023-04-24T00:33:30;10.30;99.90
20070;DHT22;10195;50.868;4.382;2023-04-24T00:35:55;10.30;99.90
20070;DHT22;10195;50.868;4.382;2023-04-24T00:38:21;10.30;99.90
20070;DHT22;10195;50.868;4.382;2023-04-24T00:40:48;10.20;99.90
20070;DHT22;10195;50.868;4.382;2023-04-24T00:43:15;10.20;99.90
20070;DHT22;10195;50.868;4.382;2023-04-24T00:45:41;10.10;99.90
20070;DHT22;10195;50.868;4.382;2023-04-24T00:48:07;10.10;99.90
20070;DHT22;10195;50.868;4.382;2023-04-24T00:50:35;10.10;99.90
20070;DHT22;10195;50.868;4.382;2023-04-24T00:53:01;10.10;99.90
20070;DHT22;10195;50.868;4.382;2023-04-24T00:55:26;10.10;99.90
20070;DHT22;10195;50.868;4.382;2023-04-24T00:57:52;10.20;99.90
20070;DHT22;10195;50.868;4.382;2023-04-24T01:00:18;10.20;99.90
20070;DHT22;10195;50.868;4.382;2023-04-24T01:02:44;10.20;99.90
20070;DHT22;10195;50.868;4.382;2023-04-24T01:05:12;10.20;99.90
20070;DHT22;10195;50.868;4.382;2023-04-24T01:07:39;10.10;99.90
20070;DHT22;10195;50.868;4.382;2023-04-24T01:10:07;10.20;99.90
20070;DHT22;10195;50.868;4.382;2023-04-24T01:12:34;10.10;99.90
20070;DHT22;10195;50.868;4.382;2023-04-24T01:14:59;10.20;99.90
20070;DHT22;10195;50.868;4.382;2023-04-24T01:17:25;10.20;99.90
20070;DHT22;10195;50.868;4.382;2023-04-24T01:19:51;10.20;99.90
20070;DHT22;10195;50.868;4.382;2023-04-24T01:22:22;10.10;99.90
20070;DHT22;10195;50.868;4.382;2023-04-24T01:24:48;10.10;99.90
20070;DHT22;10195;50.868;4.382;2023-04-24T01:27:14;10.00;99.90
20070;DHT22;10195;50.868;4.382;2023-04-24T01:29:40;10.10;99.90
20070;DHT22;10195;50.868;4.382;2023-04-24T01:32:06;10.00;99.90
20070;DHT22;10195;50.868;4.382;2023-04-24T01:34:32;10.10;99.90
20070;DHT22;10195;50.868;4.382;2023-04-24T01:36:59;10.00;99.90
20070;DHT22;10195;50.868;4.382;2023-04-24T01:39:24;10.00;99.90
20070;DHT22;10195;50.868;4.382;2023-04-24T01:41:51;10.00;99.90
20070;DHT22;10195;50.868;4.382;2023-04-24T01:44:18;9.90;99.90
20070;DHT22;10195;50.868;4.382;2023-04-24T01:46:44;9.90;99.90
20070;DHT22;10195;50.868;4.382;2023-04-24T01:49:10;9.90;99.90
20070;DHT22;10195;50.868;4.382;2023-04-24T01:51:36;9.90;99.90
20070;DHT22;10195;50.868;4.382;2023-04-24T01:54:02;10.00;99.90
20070;DHT22;10195;50.868;4.382;2023-04-24T01:56:29;10.00;99.90
20070;DHT22;10195;50.868;4.382;2023-04-24T01:58:58;10.00;99.90
20070;DHT22;10195;50.868;4.382;2023-04-24T02:01:25;9.90;99.90
20070;DHT22;10195;50.868;4.382;2023-04-24T02:03:51;10.00;99.90
20070;DHT22;10195;50.868;4.382;2023-04-24T02:06:16;9.90;99.90
20070;DHT22;10195;50.868;4.382;2023-04-24T02:08:42;10.00;99.90
20070;DHT22;10195;50.868;4.382;2023-04-24T02:11:11;10.00;99.90
20070;DHT22;10195;50.868;4.382;2023-04-24T02:13:36;10.00;99.90
20070;DHT22;10195;50.868;4.382;2023-04-24T02:16:02;10.00;99.90
20070;DHT22;10195;50.868;4.382;2023-04-24T02:18:28;10.00;99.90
20070;DHT22;10195;50.868;4.382;2023-04-24T02:20:53;9.90;99.90
20070;DHT22;10195;50.868;4.382;2023-04-24T02:23:19;9.90;99.90
20070;DHT22;10195;50.868;4.382;2023-04-24T02:25:45;9.90;99.90
20070;DHT22;10195;50.868;4.382;2023-04-24T02:28:11;9.90;99.90
20070;DHT22;10195;50.868;4.382;2023-04-24T02:30:36;9.90;99.90
20070;DHT22;10195;50.868;4.382;2023-04-24T02:33:02;9.80;99.90
20070;DHT22;10195;50.868;4.382;2023-04-24T02:35:28;9.90;99.90
20070;DHT22;10195;50.868;4.382;2023-04-24T02:37:54;9.80;99.90
20070;DHT22;10195;50.868;4.382;2023-04-24T02:40:19;9.80;99.90
20070;DHT22;10195;50.868;4.382;2023-04-24T02:42:45;9.90;99.90
20070;DHT22;10195;50.868;4.382;2023-04-24T02:45:11;9.80;99.90
20070;DHT22;10195;50.868;4.382;2023-04-24T02:47:36;9.70;99.90
20070;DHT22;10195;50.868;4.382;2023-04-24T02:50:03;9.70;99.90
20070;DHT22;10195;50.868;4.382;2023-04-24T02:52:28;9.70;99.90
20070;DHT22;10195;50.868;4.382;2023-04-24T02:54:54;9.70;99.90
20070;DHT22;10195;50.868;4.382;2023-04-24T02:57:20;9.80;99.90
20070;DHT22;10195;50.868;4.382;2023-04-24T02:59:46;9.80;99.90
20070;DHT22;10195;50.868;4.382;2023-04-24T03:02:11;9.70;99.90
20070;DHT22;10195;50.868;4.382;2023-04-24T03:04:37;9.70;99.90
20070;DHT22;10195;50.868;4.382;2023-04-24T03:07:03;9.70;99.90
20070;DHT22;10195;50.868;4.382;2023-04-24T03:09:29;9.70;99.90
20070;DHT22;10195;50.868;4.382;2023-04-24T03:11:55;9.70;99.90
20070;DHT22;10195;50.868;4.382;2023-04-24T03:14:21;9.60;99.90
20070;DHT22;10195;50.868;4.382;2023-04-24T03:16:47;9.60;99.90
20070;DHT22;10195;50.868;4.382;2023-04-24T03:19:13;9.60;99.90
20070;DHT22;10195;50.868;4.382;2023-04-24T03:21:39;9.40;99.90
20070;DHT22;10195;50.868;4.382;2023-04-24T03:24:07;9.50;99.90
20070;DHT22;10195;50.868;4.382;2023-04-24T03:26:33;9.50;99.90
20070;DHT22;10195;50.868;4.382;2023-04-24T03:28:59;9.50;99.90
20070;DHT22;10195;50.868;4.382;2023-04-24T03:31:24;9.50;99.90
20070;DHT22;10195;50.868;4.382;2023-04-24T03:33:50;9.50;99.90
20070;DHT22;10195;50.868;4.382;2023-04-24T03:36:16;9.60;99.90
20070;DHT22;10195;50.868;4.382;2023-04-24T03:38:43;9.50;99.90
20070;DHT22;10195;50.868;4.382;2023-04-24T03:41:08;9.50;99.90
20070;DHT22;10195;50.868;4.382;2023-04-24T03:43:34;9.50;99.90
20070;DHT22;10195;50.868;4.382;2023-04-24T03:46:00;9.50;99.90
20070;DHT22;10195;50.868;4.382;2023-04-24T03:48:26;9.50;99.90
20070;DHT22;10195;50.868;4.382;2023-04-24T03:50:51;9.40;99.90
20070;DHT22;10195;50.868;4.382;2023-04-24T03:53:17;9.50;99.90
20070;DHT22;10195;50.868;4.382;2023-04-24T03:55:43;9.50;99.90
20070;DHT22;10195;50.868;4.382;2023-04-24T03:58:08;9.50;99.90
20070;DHT22;10195;50.868;4.382;2023-04-24T04:00:34;9.60;99.90
20070;DHT22;10195;50.868;4.382;2023-04-24T04:03:00;9.60;99.90
20070;DHT22;10195;50.868;4.382;2023-04-24T04:05:26;9.60;99.90
20070;DHT22;10195;50.868;4.382;2023-04-24T04:07:52;9.60;99.90
20070;DHT22;10195;50.868;4.382;2023-04-24T04:10:17;9.70;99.90
20070;DHT22;10195;50.868;4.382;2023-04-24T04:12:43;9.70;99.90
20070;DHT22;10195;50.868;4.382;2023-04-24T04:15:09;9.70;99.90
20070;DHT22;10195;50.868;4.382;2023-04-24T04:17:35;9.80;99.90
20070;DHT22;10195;50.868;4.382;2023-04-24T04:20:00;9.90;99.90
20070;DHT22;10195;50.868;4.382;2023-04-24T04:22:26;9.80;99.90
20070;DHT22;10195;50.868;4.382;2023-04-24T04:24:52;9.80;99.90
20070;DHT22;10195;50.868;4.382;2023-04-24T04:27:18;9.90;99.90
20070;DHT22;10195;50.868;4.382;2023-04-24T04:29:44;9.90;99.90
20070;DHT22;10195;50.868;4.382;2023-04-24T04:32:10;9.80;99.90
20070;DHT22;10195;50.868;4.382;2023-04-24T04:34:35;9.80;99.90
20070;DHT22;10195;50.868;4.382;2023-04-24T04:37:03;9.70;99.90
20070;DHT22;10195;50.868;4.382;2023-04-24T04:39:29;9.70;99.90
20070;DHT22;10195;50.868;4.382;2023-04-24T04:41:56;9.80;99.90
20070;DHT22;10195;50.868;4.382;2023-04-24T04:44:21;9.70;99.90
20070;DHT22;10195;50.868;4.382;2023-04-24T04:46:47;9.70;99.90
20070;DHT22;10195;50.868;4.382;2023-04-24T04:49:13;9.70;99.90
20070;DHT22;10195;50.868;4.382;2023-04-24T04:51:42;9.60;99.90
20070;DHT22;10195;50.868;4.382;2023-04-24T04:54:07;9.50;99.90
20070;DHT22;10195;50.868;4.382;2023-04-24T04:56:36;9.40;99.90
20070;DHT22;10195;50.868;4.382;2023-04-24T04:59:01;9.50;99.90
20070;DHT22;10195;50.868;4.382;2023-04-24T05:01:27;9.50;99.90
20070;DHT22;10195;50.868;4.382;2023-04-24T05:03:53;9.50;99.90
20070;DHT22;10195;50.868;4.382;2023-04-24T05:06:19;9.50;99.90
20070;DHT22;10195;50.868;4.382;2023-04-24T05:08:44;9.40;99.90
20070;DHT22;10195;50.868;4.382;2023-04-24T05:11:10;9.40;99.90
20070;DHT22;10195;50.868;4.382;2023-04-24T05:13:36;9.30;99.90
20070;DHT22;10195;50.868;4.382;2023-04-24T05:16:03;9.30;99.90
20070;DHT22;10195;50.868;4.382;2023-04-24T05:18:29;9.30;99.90
20070;DHT22;10195;50.868;4.382;2023-04-24T05:20:55;9.40;99.90
20070;DHT22;10195;50.868;4.382;2023-04-24T05:23:21;9.40;99.90
20070;DHT22;10195;50.868;4.382;2023-04-24T05:25:47;9.40;99.90
20070;DHT22;10195;50.868;4.382;2023-04-24T05:28:14;9.40;99.90
20070;DHT22;10195;50.868;4.382;2023-04-24T05:30:41;9.40;99.90
20070;DHT22;10195;50.868;4.382;2023-04-24T05:33:07;9.40;99.90
20070;DHT22;10195;50.868;4.382;2023-04-24T05:35:33;9.40;99.90
20070;DHT22;10195;50.868;4.382;2023-04-24T05:37:59;9.50;99.90
20070;DHT22;10195;50.868;4.382;2023-04-24T05:40:25;9.50;99.90
20070;DHT22;10195;50.868;4.382;2023-04-24T05:42:51;9.50;99.90
20070;DHT22;10195;50.868;4.382;2023-04-24T05:45:18;9.50;99.90
20070;DHT22;10195;50.868;4.382;2023-04-24T05:47:44;9.50;99.90
20070;DHT22;10195;50.868;4.382;2023-04-24T05:50:10;9.40;99.90
20070;DHT22;10195;50.868;4.382;2023-04-24T05:52:36;9.50;99.90
20070;DHT22;10195;50.868;4.382;2023-04-24T05:55:02;9.40;99.90
20070;DHT22;10195;50.868;4.382;2023-04-24T05:57:28;9.30;99.90
20070;DHT22;10195;50.868;4.382;2023-04-24T05:59:54;9.30;99.90
20070;DHT22;10195;50.868;4.382;2023-04-24T06:02:19;9.40;99.90
20070;DHT22;10195;50.868;4.382;2023-04-24T06:04:45;9.30;99.90
20070;DHT22;10195;50.868;4.382;2023-04-24T06:07:11;9.30;99.90
20070;DHT22;10195;50.868;4.382;2023-04-24T06:09:37;9.30;99.90
20070;DHT22;10195;50.868;4.382;2023-04-24T06:12:03;9.40;99.90
20070;DHT22;10195;50.868;4.382;2023-04-24T06:14:29;9.40;99.90
20070;DHT22;10195;50.868;4.382;2023-04-24T06:16:55;9.40;99.90
20070;DHT22;10195;50.868;4.382;2023-04-24T06:19:20;9.40;99.90
20070;DHT22;10195;50.868;4.382;2023-04-24T06:21:46;9.50;99.90
20070;DHT22;10195;50.868;4.382;2023-04-24T06:24:14;9.50;99.90
20070;DHT22;10195;50.868;4.382;2023-04-24T06:26:41;9.40;99.90
20070;DHT22;10195;50.868;4.382;2023-04-24T06:29:07;9.40;99.90
20070;DHT22;10195;50.868;4.382;2023-04-24T06:31:32;9.30;99.90
20070;DHT22;10195;50.868;4.382;2023-04-24T06:34:02;9.30;99.90
20070;DHT22;10195;50.868;4.382;2023-04-24T06:36:28;9.30;99.90
20070;DHT22;10195;50.868;4.382;2023-04-24T06:38:54;9.30;99.90
20070;DHT22;10195;50.868;4.382;2023-04-24T06:41:20;9.30;99.90
20070;DHT22;10195;50.868;4.382;2023-04-24T06:43:45;9.50;99.90
20070;DHT22;10195;50.868;4.382;2023-04-24T06:46:11;9.50;99.90
20070;DHT22;10195;50.868;4.382;2023-04-24T06:48:37;9.50;99.90
20070;DHT22;10195;50.868;4.382;2023-04-24T06:51:03;9.50;99.90
20070;DHT22;10195;50.868;4.382;2023-04-24T06:53:28;9.60;99.90
20070;DHT22;10195;50.868;4.382;2023-04-24T06:55:54;9.60;99.90
20070;DHT22;10195;50.868;4.382;2023-04-24T06:58:20;9.80;99.90
20070;DHT22;10195;50.868;4.382;2023-04-24T07:00:46;9.90;99.90
20070;DHT22;10195;50.868;4.382;2023-04-24T07:03:12;9.90;99.90
20070;DHT22;10195;50.868;4.382;2023-04-24T07:05:37;9.80;99.90
20070;DHT22;10195;50.868;4.382;2023-04-24T07:08:03;9.80;99.90
20070;DHT22;10195;50.868;4.382;2023-04-24T07:10:29;9.80;99.90
20070;DHT22;10195;50.868;4.382;2023-04-24T07:12:55;9.80;99.90
20070;DHT22;10195;50.868;4.382;2023-04-24T07:15:23;9.80;99.90
20070;DHT22;10195;50.868;4.382;2023-04-24T07:17:50;9.80;99.90
20070;DHT22;10195;50.868;4.382;2023-04-24T07:20:15;9.70;99.90
20070;DHT22;10195;50.868;4.382;2023-04-24T07:22:44;9.80;99.90
20070;DHT22;10195;50.868;4.382;2023-04-24T07:25:11;10.00;99.90
20070;DHT22;10195;50.868;4.382;2023-04-24T07:27:36;10.10;99.90
20070;DHT22;10195;50.868;4.382;2023-04-24T07:30:05;10.20;99.90
20070;DHT22;10195;50.868;4.382;2023-04-24T07:32:34;10.20;99.90
20070;DHT22;10195;50.868;4.382;2023-04-24T07:35:00;10.30;99.90
20070;DHT22;10195;50.868;4.382;2023-04-24T07:37:27;10.40;99.90
20070;DHT22;10195;50.868;4.382;2023-04-24T07:39:53;10.50;99.90
20070;DHT22;10195;50.868;4.382;2023-04-24T07:42:19;10.50;99.90
20070;DHT22;10195;50.868;4.382;2023-04-24T07:44:44;10.70;99.90
20070;DHT22;10195;50.868;4.382;2023-04-24T07:47:12;11.10;99.90
20070;DHT22;10195;50.868;4.382;2023-04-24T07:49:38;11.30;99.90
20070;DHT22;10195;50.868;4.382;2023-04-24T07:52:03;11.20;99.90
20070;DHT22;10195;50.868;4.382;2023-04-24T07:54:29;10.90;99.90
20070;DHT22;10195;50.868;4.382;2023-04-24T07:56:55;10.60;99.90
20070;DHT22;10195;50.868;4.382;2023-04-24T07:59:20;10.40;99.90
20070;DHT22;10195;50.868;4.382;2023-04-24T08:01:46;10.40;99.90
20070;DHT22;10195;50.868;4.382;2023-04-24T08:04:12;10.60;99.90
20070;DHT22;10195;50.868;4.382;2023-04-24T08:06:37;10.90;99.90
20070;DHT22;10195;50.868;4.382;2023-04-24T08:09:03;11.10;99.90
20070;DHT22;10195;50.868;4.382;2023-04-24T08:11:29;11.00;99.90
20070;DHT22;10195;50.868;4.382;2023-04-24T08:13:56;10.80;99.90
20070;DHT22;10195;50.868;4.382;2023-04-24T08:16:22;10.80;99.90
20070;DHT22;10195;50.868;4.382;2023-04-24T08:18:49;10.70;99.90
20070;DHT22;10195;50.868;4.382;2023-04-24T08:21:15;10.70;99.90
20070;DHT22;10195;50.868;4.382;2023-04-24T08:23:45;10.80;99.90
20070;DHT22;10195;50.868;4.382;2023-04-24T08:26:12;11.10;99.90
20070;DHT22;10195;50.868;4.382;2023-04-24T08:28:38;11.10;99.90
20070;DHT22;10195;50.868;4.382;2023-04-24T08:31:04;11.30;99.90
20070;DHT22;10195;50.868;4.382;2023-04-24T08:33:30;11.40;99.90
20070;DHT22;10195;50.868;4.382;2023-04-24T08:36:01;11.30;99.90
20070;DHT22;10195;50.868;4.382;2023-04-24T08:38:27;11.50;99.90
20070;DHT22;10195;50.868;4.382;2023-04-24T08:40:53;11.50;99.90
20070;DHT22;10195;50.868;4.382;2023-04-24T08:43:21;11.60;99.90
20070;DHT22;10195;50.868;4.382;2023-04-24T08:45:47;11.70;99.90
20070;DHT22;10195;50.868;4.382;2023-04-24T08:48:13;11.90;99.90
20070;DHT22;10195;50.868;4.382;2023-04-24T08:50:40;12.10;99.90
20070;DHT22;10195;50.868;4.382;2023-04-24T08:53:09;12.20;99.90
20070;DHT22;10195;50.868;4.382;2023-04-24T08:55:37;12.40;99.90
20070;DHT22;10195;50.868;4.382;2023-04-24T08:58:03;12.90;99.90
20070;DHT22;10195;50.868;4.382;2023-04-24T09:00:30;12.90;99.90
20070;DHT22;10195;50.868;4.382;2023-04-24T09:02:56;13.40;99.90
20070;DHT22;10195;50.868;4.382;2023-04-24T09:05:23;13.70;99.90
20070;DHT22;10195;50.868;4.382;2023-04-24T09:07:54;14.30;99.90
20070;DHT22;10195;50.868;4.382;2023-04-24T09:10:22;14.40;99.90
20070;DHT22;10195;50.868;4.382;2023-04-24T09:12:50;14.50;99.90
20070;DHT22;10195;50.868;4.382;2023-04-24T09:15:18;14.90;99.90
20070;DHT22;10195;50.868;4.382;2023-04-24T09:17:44;14.90;99.90
20070;DHT22;10195;50.868;4.382;2023-04-24T09:20:10;14.30;99.90
20070;DHT22;10195;50.868;4.382;2023-04-24T09:22:36;13.70;99.90
20070;DHT22;10195;50.868;4.382;2023-04-24T09:25:10;13.40;99.90
20070;DHT22;10195;50.868;4.382;2023-04-24T09:27:44;13.50;99.90
20070;DHT22;10195;50.868;4.382;2023-04-24T09:30:11;13.20;99.90
20070;DHT22;10195;50.868;4.382;2023-04-24T09:32:37;12.80;99.90
20070;DHT22;10195;50.868;4.382;2023-04-24T09:35:13;12.50;99.90
20070;DHT22;10195;50.868;4.382;2023-04-24T09:37:47;12.10;99.90
20070;DHT22;10195;50.868;4.382;2023-04-24T09:40:21;12.30;99.90
20070;DHT22;10195;50.868;4.382;2023-04-24T09:42:55;12.30;99.90
20070;DHT22;10195;50.868;4.382;2023-04-24T09:45:28;12.00;99.90
20070;DHT22;10195;50.868;4.382;2023-04-24T09:47:55;12.60;99.90
20070;DHT22;10195;50.868;4.382;2023-04-24T09:50:21;13.00;99.90
20070;DHT22;10195;50.868;4.382;2023-04-24T09:52:56;13.40;99.90
20070;DHT22;10195;50.868;4.382;2023-04-24T09:55:22;13.40;99.90
20070;DHT22;10195;50.868;4.382;2023-04-24T09:57:53;13.20;99.90
20070;DHT22;10195;50.868;4.382;2023-04-24T10:00:26;13.20;99.90
20070;DHT22;10195;50.868;4.382;2023-04-24T10:05:37;13.60;99.90
20070;DHT22;10195;50.868;4.382;2023-04-24T10:08:11;13.10;99.90
20070;DHT22;10195;50.868;4.382;2023-04-24T10:10:42;13.00;99.90
20070;DHT22;10195;50.868;4.382;2023-04-24T10:13:09;13.10;99.90
20070;DHT22;10195;50.868;4.382;2023-04-24T10:15:37;13.30;99.90
20070;DHT22;10195;50.868;4.382;2023-04-24T10:18:04;13.80;99.90
20070;DHT22;10195;50.868;4.382;2023-04-24T10:20:32;13.90;99.90
20070;DHT22;10195;50.868;4.382;2023-04-24T10:22:59;13.50;99.90
20070;DHT22;10195;50.868;4.382;2023-04-24T10:25:30;13.40;99.90
20070;DHT22;10195;50.868;4.382;2023-04-24T10:27:58;13.30;99.90
20070;DHT22;10195;50.868;4.382;2023-04-24T10:30:26;13.10;99.90
20070;DHT22;10195;50.868;4.382;2023-04-24T10:32:52;13.10;99.90
20070;DHT22;10195;50.868;4.382;2023-04-24T10:35:20;13.10;99.90
20070;DHT22;10195;50.868;4.382;2023-04-24T10:38:06;13.30;99.90
20070;DHT22;10195;50.868;4.382;2023-04-24T10:40:35;14.00;99.90
20070;DHT22;10195;50.868;4.382;2023-04-24T10:43:08;14.40;99.90
20070;DHT22;10195;50.868;4.382;2023-04-24T10:45:38;14.60;99.90
20070;DHT22;10195;50.868;4.382;2023-04-24T10:48:07;14.20;99.90
20070;DHT22;10195;50.868;4.382;2023-04-24T10:50:52;13.70;99.90
20070;DHT22;10195;50.868;4.382;2023-04-24T10:53:23;13.20;99.90
20070;DHT22;10195;50.868;4.382;2023-04-24T10:58:43;13.50;99.90
20070;DHT22;10195;50.868;4.382;2023-04-24T11:01:28;13.40;99.90
20070;DHT22;10195;50.868;4.382;2023-04-24T11:03:58;13.40;99.90
20070;DHT22;10195;50.868;4.382;2023-04-24T11:06:32;13.10;99.90
20070;DHT22;10195;50.868;4.382;2023-04-24T11:09:06;12.80;99.90
20070;DHT22;10195;50.868;4.382;2023-04-24T11:11:33;12.60;99.90
20070;DHT22;10195;50.868;4.382;2023-04-24T11:21:38;13.10;99.90
20070;DHT22;10195;50.868;4.382;2023-04-24T11:26:48;13.70;99.90
20070;DHT22;10195;50.868;4.382;2023-04-24T11:29:14;13.90;99.90
20070;DHT22;10195;50.868;4.382;2023-04-24T11:31:40;13.80;99.90
20070;DHT22;10195;50.868;4.382;2023-04-24T11:34:12;13.80;99.90
20070;DHT22;10195;50.868;4.382;2023-04-24T11:36:39;13.80;99.90
20070;DHT22;10195;50.868;4.382;2023-04-24T11:39:06;13.80;99.90
20070;DHT22;10195;50.868;4.382;2023-04-24T11:41:33;13.80;99.90
20070;DHT22;10195;50.868;4.382;2023-04-24T11:43:59;14.00;99.90
20070;DHT22;10195;50.868;4.382;2023-04-24T11:46:29;14.40;99.90
20070;DHT22;10195;50.868;4.382;2023-04-24T11:48:56;14.50;99.90
20070;DHT22;10195;50.868;4.382;2023-04-24T11:51:26;14.40;99.90
20070;DHT22;10195;50.868;4.382;2023-04-24T11:53:56;14.10;99.90
20070;DHT22;10195;50.868;4.382;2023-04-24T11:56:23;14.10;99.90
20070;DHT22;10195;50.868;4.382;2023-04-24T11:58:51;14.00;99.90
20070;DHT22;10195;50.868;4.382;2023-04-24T12:01:17;13.90;99.90
20070;DHT22;10195;50.868;4.382;2023-04-24T12:03:47;13.60;99.90
20070;DHT22;10195;50.868;4.382;2023-04-24T12:06:14;13.50;99.90
20070;DHT22;10195;50.868;4.382;2023-04-24T12:08:40;13.50;99.90
20070;DHT22;10195;50.868;4.382;2023-04-24T12:11:07;13.50;99.90
20070;DHT22;10195;50.868;4.382;2023-04-24T12:13:33;13.10;99.90
20070;DHT22;10195;50.868;4.382;2023-04-24T12:16:01;13.20;99.90
20070;DHT22;10195;50.868;4.382;2023-04-24T12:18:27;13.60;99.90
20070;DHT22;10195;50.868;4.382;2023-04-24T12:20:54;14.10;99.90
20070;DHT22;10195;50.868;4.382;2023-04-24T12:23:35;14.40;99.90
20070;DHT22;10195;50.868;4.382;2023-04-24T12:26:04;14.50;99.90
20070;DHT22;10195;50.868;4.382;2023-04-24T12:28:38;14.50;99.90
20070;DHT22;10195;50.868;4.382;2023-04-24T12:31:04;14.30;99.90
20070;DHT22;10195;50.868;4.382;2023-04-24T12:33:35;14.50;99.90
20070;DHT22;10195;50.868;4.382;2023-04-24T12:36:01;14.30;99.90
20070;DHT22;10195;50.868;4.382;2023-04-24T12:38:28;14.60;99.90
20070;DHT22;10195;50.868;4.382;2023-04-24T12:41:06;14.90;99.90
20070;DHT22;10195;50.868;4.382;2023-04-24T12:43:33;14.80;99.90
20070;DHT22;10195;50.868;4.382;2023-04-24T12:45:59;14.70;99.90
20070;DHT22;10195;50.868;4.382;2023-04-24T12:48:30;14.70;99.90
20070;DHT22;10195;50.868;4.382;2023-04-24T12:50:59;14.80;99.90
20070;DHT22;10195;50.868;4.382;2023-04-24T12:53:28;14.70;99.90
20070;DHT22;10195;50.868;4.382;2023-04-24T12:55:57;14.80;99.90
20070;DHT22;10195;50.868;4.382;2023-04-24T12:58:23;14.90;99.90
20070;DHT22;10195;50.868;4.382;2023-04-24T13:00:49;14.80;99.90
20070;DHT22;10195;50.868;4.382;2023-04-24T13:03:14;14.90;99.90
20070;DHT22;10195;50.868;4.382;2023-04-24T13:05:41;14.70;99.90
20070;DHT22;10195;50.868;4.382;2023-04-24T13:08:07;14.60;99.90
20070;DHT22;10195;50.868;4.382;2023-04-24T13:10:33;14.10;99.90
20070;DHT22;10195;50.868;4.382;2023-04-24T13:12:59;13.90;99.90
20070;DHT22;10195;50.868;4.382;2023-04-24T13:15:25;14.00;99.90
20070;DHT22;10195;50.868;4.382;2023-04-24T13:17:52;14.20;99.90
20070;DHT22;10195;50.868;4.382;2023-04-24T13:20:18;13.90;99.90
20070;DHT22;10195;50.868;4.382;2023-04-24T13:22:44;13.90;99.90
20070;DHT22;10195;50.868;4.382;2023-04-24T13:25:10;13.90;99.90
20070;DHT22;10195;50.868;4.382;2023-04-24T13:27:38;13.70;99.90
20070;DHT22;10195;50.868;4.382;2023-04-24T13:30:04;13.90;99.90
20070;DHT22;10195;50.868;4.382;2023-04-24T13:32:30;14.10;99.90
20070;DHT22;10195;50.868;4.382;2023-04-24T13:34:56;14.20;99.90
20070;DHT22;10195;50.868;4.382;2023-04-24T13:37:22;14.20;99.90
20070;DHT22;10195;50.868;4.382;2023-04-24T13:39:48;14.50;99.90
20070;DHT22;10195;50.868;4.382;2023-04-24T13:42:14;14.70;99.90
20070;DHT22;10195;50.868;4.382;2023-04-24T13:44:40;14.80;99.90
20070;DHT22;10195;50.868;4.382;2023-04-24T13:47:05;14.50;99.90
20070;DHT22;10195;50.868;4.382;2023-04-24T13:49:32;14.50;99.90
20070;DHT22;10195;50.868;4.382;2023-04-24T13:51:58;14.40;99.90
20070;DHT22;10195;50.868;4.382;2023-04-24T13:54:24;14.60;99.90
20070;DHT22;10195;50.868;4.382;2023-04-24T13:56:51;14.50;99.90
20070;DHT22;10195;50.868;4.382;2023-04-24T13:59:17;14.50;99.90
20070;DHT22;10195;50.868;4.382;2023-04-24T14:01:44;14.50;99.90
20070;DHT22;10195;50.868;4.382;2023-04-24T14:04:10;14.80;99.90
20070;DHT22;10195;50.868;4.382;2023-04-24T14:06:36;14.90;99.90
20070;DHT22;10195;50.868;4.382;2023-04-24T14:09:02;14.80;99.90
20070;DHT22;10195;50.868;4.382;2023-04-24T14:11:28;14.60;99.90
20070;DHT22;10195;50.868;4.382;2023-04-24T14:13:54;14.00;99.90
20070;DHT22;10195;50.868;4.382;2023-04-24T14:16:22;13.70;99.90
20070;DHT22;10195;50.868;4.382;2023-04-24T14:18:47;14.10;99.90
20070;DHT22;10195;50.868;4.382;2023-04-24T14:21:13;14.30;99.90
20070;DHT22;10195;50.868;4.382;2023-04-24T14:23:39;14.50;99.90
20070;DHT22;10195;50.868;4.382;2023-04-24T14:26:04;13.90;99.90
20070;DHT22;10195;50.868;4.382;2023-04-24T14:28:30;13.40;99.90
20070;DHT22;10195;50.868;4.382;2023-04-24T14:30:56;13.10;99.90
20070;DHT22;10195;50.868;4.382;2023-04-24T14:33:22;13.30;99.90
20070;DHT22;10195;50.868;4.382;2023-04-24T14:35:47;13.20;99.90
20070;DHT22;10195;50.868;4.382;2023-04-24T14:38:13;13.40;99.90
20070;DHT22;10195;50.868;4.382;2023-04-24T14:40:40;13.60;99.90
20070;DHT22;10195;50.868;4.382;2023-04-24T14:43:06;13.60;99.90
20070;DHT22;10195;50.868;4.382;2023-04-24T14:45:32;13.40;99.90
20070;DHT22;10195;50.868;4.382;2023-04-24T14:47:58;13.20;99.90
20070;DHT22;10195;50.868;4.382;2023-04-24T14:50:23;13.10;99.90
20070;DHT22;10195;50.868;4.382;2023-04-24T14:52:53;13.10;99.90
20070;DHT22;10195;50.868;4.382;2023-04-24T14:55:19;13.10;99.90
20070;DHT22;10195;50.868;4.382;2023-04-24T14:57:45;13.20;99.90
20070;DHT22;10195;50.868;4.382;2023-04-24T15:00:12;13.30;99.90
20070;DHT22;10195;50.868;4.382;2023-04-24T15:02:38;13.40;99.90
20070;DHT22;10195;50.868;4.382;2023-04-24T15:05:07;13.60;99.90
20070;DHT22;10195;50.868;4.382;2023-04-24T15:07:33;13.80;99.90
20070;DHT22;10195;50.868;4.382;2023-04-24T15:10:01;13.80;99.90
20070;DHT22;10195;50.868;4.382;2023-04-24T15:12:27;13.30;99.90
20070;DHT22;10195;50.868;4.382;2023-04-24T15:14:54;13.20;99.90
20070;DHT22;10195;50.868;4.382;2023-04-24T15:17:19;13.40;99.90
20070;DHT22;10195;50.868;4.382;2023-04-24T15:19:45;13.30;99.90
20070;DHT22;10195;50.868;4.382;2023-04-24T15:22:11;13.30;99.90
20070;DHT22;10195;50.868;4.382;2023-04-24T15:24:36;13.50;99.90
20070;DHT22;10195;50.868;4.382;2023-04-24T15:27:02;13.70;99.90
20070;DHT22;10195;50.868;4.382;2023-04-24T15:29:29;13.50;99.90
20070;DHT22;10195;50.868;4.382;2023-04-24T15:31:54;13.10;99.90
20070;DHT22;10195;50.868;4.382;2023-04-24T15:34:20;13.10;99.90
20070;DHT22;10195;50.868;4.382;2023-04-24T15:36:46;13.00;99.90
20070;DHT22;10195;50.868;4.382;2023-04-24T15:39:12;13.00;99.90
20070;DHT22;10195;50.868;4.382;2023-04-24T15:41:37;12.90;99.90
20070;DHT22;10195;50.868;4.382;2023-04-24T15:44:03;12.80;99.90
20070;DHT22;10195;50.868;4.382;2023-04-24T15:46:29;12.70;99.90
20070;DHT22;10195;50.868;4.382;2023-04-24T15:48:55;12.80;99.90